createdAt,value
2017-02-28T00:00:34.759Z,0
2017-02-28T00:01:33.973Z,0
2017-02-28T00:02:34.349Z,0
2017-02-28T00:03:34.352Z,0
2017-02-28T00:04:34.732Z,0
2017-02-28T00:05:34.709Z,0
2017-02-28T00:06:34.699Z,0
2017-02-28T00:07:34.733Z,0
2017-02-28T00:08:34.694Z,0
2017-02-28T00:09:34.702Z,0
2017-02-28T00:10:34.664Z,0
2017-02-28T00:11:34.656Z,0
2017-02-28T00:12:34.254Z,0
2017-02-28T00:13:34.643Z,0
2017-02-28T00:14:34.625Z,0
2017-02-28T00:15:34.630Z,0
2017-02-28T00:16:34.624Z,0
2017-02-28T00:17:34.601Z,0
2017-02-28T00:18:34.247Z,0
2017-02-28T00:19:34.587Z,0
2017-02-28T00:20:34.604Z,0
2017-02-28T00:21:34.559Z,0
2017-02-28T00:22:34.552Z,0
2017-02-28T00:23:34.552Z,0
2017-02-28T00:24:34.553Z,0
2017-02-28T00:25:34.524Z,0
2017-02-28T00:26:34.545Z,0
2017-02-28T00:27:34.511Z,0
2017-02-28T00:28:34.521Z,0
2017-02-28T00:29:34.484Z,0
2017-02-28T00:30:34.476Z,0
2017-02-28T00:31:34.469Z,0
2017-02-28T00:32:34.089Z,0
2017-02-28T00:33:34.444Z,0
2017-02-28T00:34:34.434Z,0
2017-02-28T00:35:34.426Z,0
2017-02-28T00:36:34.422Z,0
2017-02-28T00:37:34.410Z,0
2017-02-28T00:38:33.636Z,0
2017-02-28T00:39:34.398Z,0
2017-02-28T00:40:34.387Z,0
2017-02-28T00:41:34.380Z,0
2017-02-28T00:42:34.377Z,0
2017-02-28T00:43:34.366Z,0
2017-02-28T00:44:34.354Z,0
2017-02-28T00:45:34.352Z,0
2017-02-28T00:46:34.354Z,0
2017-02-28T00:47:34.353Z,0
2017-02-28T00:48:34.312Z,0
2017-02-28T00:49:34.312Z,0
2017-02-28T00:50:34.301Z,0
2017-02-28T00:51:34.301Z,0
2017-02-28T00:52:34.316Z,0
2017-02-28T00:53:34.266Z,0
2017-02-28T00:54:34.268Z,0
2017-02-28T00:55:34.248Z,0
2017-02-28T00:56:33.885Z,0
2017-02-28T00:57:33.868Z,0
2017-02-28T00:58:34.237Z,0
2017-02-28T00:59:34.217Z,0
2017-02-28T01:00:34.225Z,0
2017-02-28T01:01:33.830Z,0
2017-02-28T01:02:34.210Z,0
2017-02-28T01:03:33.816Z,0
2017-02-28T01:04:34.173Z,0
2017-02-28T01:05:33.775Z,0
2017-02-28T01:06:33.781Z,0
2017-02-28T01:07:33.760Z,0
2017-02-28T01:08:33.762Z,0
2017-02-28T01:09:33.744Z,0
2017-02-28T01:10:34.130Z,0
2017-02-28T01:11:34.113Z,0
2017-02-28T01:12:33.721Z,0
2017-02-28T01:13:33.709Z,0
2017-02-28T01:14:34.108Z,0
2017-02-28T01:15:34.086Z,0
2017-02-28T01:16:34.036Z,0
2017-02-28T01:17:33.681Z,0
2017-02-28T01:18:34.051Z,0
2017-02-28T01:19:34.056Z,0
2017-02-28T01:20:34.048Z,0
2017-02-28T01:21:34.058Z,0
2017-02-28T01:22:34.019Z,0
2017-02-28T01:23:34.024Z,0
2017-02-28T01:24:34.022Z,0
2017-02-28T01:25:33.997Z,0
2017-02-28T01:26:33.878Z,0
2017-02-28T01:27:33.982Z,0
2017-02-28T01:28:33.998Z,0
2017-02-28T01:29:33.963Z,0
2017-02-28T01:30:33.967Z,0
2017-02-28T01:31:33.952Z,0
2017-02-28T01:32:33.952Z,0
2017-02-28T01:33:33.951Z,0
2017-02-28T01:34:33.945Z,0
2017-02-28T01:35:33.912Z,0
2017-02-28T01:36:33.931Z,0
2017-02-28T01:37:33.150Z,0
2017-02-28T01:38:33.895Z,0
2017-02-28T01:39:33.886Z,0
2017-02-28T01:40:33.881Z,0
2017-02-28T01:41:33.892Z,0
2017-02-28T01:42:33.856Z,0
2017-02-28T01:43:33.848Z,0
2017-02-28T01:44:33.840Z,0
2017-02-28T01:45:33.865Z,0
2017-02-28T01:46:33.824Z,0
2017-02-28T01:47:33.816Z,0
2017-02-28T01:48:33.817Z,0
2017-02-28T01:49:33.804Z,0
2017-02-28T01:50:33.794Z,0
2017-02-28T01:51:33.806Z,0
2017-02-28T01:52:33.776Z,0
2017-02-28T01:53:33.782Z,0
2017-02-28T01:54:33.778Z,0
2017-02-28T01:55:33.764Z,0
2017-02-28T01:56:33.769Z,0
2017-02-28T01:57:33.789Z,0
2017-02-28T01:58:33.728Z,0
2017-02-28T01:59:33.357Z,0
2017-02-28T02:00:33.749Z,0
2017-02-28T02:01:33.754Z,0
2017-02-28T02:02:33.697Z,0
2017-02-28T02:03:33.691Z,0
2017-02-28T02:04:33.679Z,0
2017-02-28T02:05:32.916Z,0
2017-02-28T02:06:33.667Z,0
2017-02-28T02:07:33.668Z,0
2017-02-28T02:08:33.652Z,0
2017-02-28T02:09:33.658Z,0
2017-02-28T02:10:33.636Z,0
2017-02-28T02:11:33.248Z,0
2017-02-28T02:12:33.619Z,0
2017-02-28T02:13:33.622Z,0
2017-02-28T02:14:33.629Z,0
2017-02-28T02:15:33.599Z,0
2017-02-28T02:16:33.605Z,0
2017-02-28T02:17:33.586Z,0
2017-02-28T02:18:33.576Z,0
2017-02-28T02:19:33.579Z,0
2017-02-28T02:20:33.576Z,0
2017-02-28T02:21:33.201Z,0
2017-02-28T02:22:33.557Z,0
2017-02-28T02:23:33.165Z,0
2017-02-28T02:24:33.160Z,0
2017-02-28T02:25:33.517Z,0
2017-02-28T02:26:33.156Z,0
2017-02-28T02:27:33.516Z,0
2017-02-28T02:28:33.497Z,0
2017-02-28T02:29:33.515Z,0
2017-02-28T02:30:33.526Z,0
2017-02-28T02:31:33.510Z,0
2017-02-28T02:32:33.101Z,0
2017-02-28T02:33:33.072Z,0
2017-02-28T02:34:33.091Z,0
2017-02-28T02:35:33.441Z,0
2017-02-28T02:36:33.443Z,0
2017-02-28T02:37:33.431Z,0
2017-02-28T02:38:33.434Z,0
2017-02-28T02:39:33.436Z,0
2017-02-28T02:40:33.407Z,0
2017-02-28T02:41:33.657Z,0
2017-02-28T02:42:33.391Z,0
2017-02-28T02:43:33.387Z,0
2017-02-28T02:44:33.402Z,0
2017-02-28T02:45:33.387Z,0
2017-02-28T02:46:32.996Z,0
2017-02-28T02:47:32.974Z,0
2017-02-28T02:48:33.380Z,0
2017-02-28T02:49:32.947Z,0
2017-02-28T02:50:33.338Z,0
2017-02-28T02:51:33.332Z,0
2017-02-28T02:52:32.949Z,0
2017-02-28T02:53:33.312Z,0
2017-02-28T02:54:33.295Z,0
2017-02-28T02:55:33.286Z,0
2017-02-28T02:56:33.288Z,0
2017-02-28T02:57:33.296Z,0
2017-02-28T02:58:32.911Z,0
2017-02-28T02:59:33.260Z,0
2017-02-28T03:00:33.247Z,0
2017-02-28T03:01:33.275Z,0
2017-02-28T03:02:33.243Z,0
2017-02-28T03:03:33.224Z,0
2017-02-28T03:04:32.830Z,0
2017-02-28T03:05:32.823Z,0
2017-02-28T03:06:32.823Z,0
2017-02-28T03:07:33.214Z,0
2017-02-28T03:08:33.223Z,0
2017-02-28T03:09:32.816Z,0
2017-02-28T03:10:33.199Z,0
2017-02-28T03:11:33.188Z,0
2017-02-28T03:12:33.163Z,0
2017-02-28T03:13:33.159Z,0
2017-02-28T03:14:32.757Z,0
2017-02-28T03:15:32.744Z,0
2017-02-28T03:16:33.121Z,0
2017-02-28T03:17:33.151Z,0
2017-02-28T03:18:33.107Z,0
2017-02-28T03:19:33.114Z,0
2017-02-28T03:20:33.093Z,0
2017-02-28T03:21:33.094Z,0
2017-02-28T03:22:33.073Z,0
2017-02-28T03:23:33.107Z,0
2017-02-28T03:24:33.061Z,0
2017-02-28T03:25:32.670Z,0
2017-02-28T03:26:33.049Z,0
2017-02-28T03:27:32.662Z,0
2017-02-28T03:28:32.650Z,0
2017-02-28T03:29:32.642Z,0
2017-02-28T03:30:33.028Z,0
2017-02-28T03:31:33.021Z,0
2017-02-28T03:32:32.997Z,0
2017-02-28T03:33:32.992Z,0
2017-02-28T03:34:32.988Z,0
2017-02-28T03:35:32.978Z,0
2017-02-28T03:36:32.966Z,0
2017-02-28T03:37:32.963Z,0
2017-02-28T03:38:32.956Z,0
2017-02-28T03:39:32.939Z,0
2017-02-28T03:40:32.547Z,0
2017-02-28T03:41:32.937Z,0
2017-02-28T03:42:32.914Z,0
2017-02-28T03:43:32.544Z,0
2017-02-28T03:44:32.902Z,0
2017-02-28T03:45:32.520Z,0
2017-02-28T03:46:32.888Z,0
2017-02-28T03:47:32.915Z,0
2017-02-28T03:48:32.880Z,0
2017-02-28T03:49:32.888Z,0
2017-02-28T03:50:32.854Z,0
2017-02-28T03:51:32.847Z,0
2017-02-28T03:52:32.851Z,0
2017-02-28T03:53:32.830Z,0
2017-02-28T03:54:32.860Z,0
2017-02-28T03:55:32.813Z,0
2017-02-28T03:56:32.837Z,0
2017-02-28T03:57:32.415Z,0
2017-02-28T03:58:32.793Z,0
2017-02-28T03:59:32.801Z,0
2017-02-28T04:00:32.389Z,0
2017-02-28T04:01:32.793Z,0
2017-02-28T04:02:32.764Z,0
2017-02-28T04:03:32.746Z,0
2017-02-28T04:04:32.758Z,0
2017-02-28T04:05:32.741Z,0
2017-02-28T04:06:32.739Z,0
2017-02-28T04:07:32.721Z,0
2017-02-28T04:08:32.709Z,0
2017-02-28T04:09:32.702Z,0
2017-02-28T04:10:32.328Z,0
2017-02-28T04:11:32.685Z,0
2017-02-28T04:12:32.727Z,0
2017-02-28T04:13:32.674Z,0
2017-02-28T04:14:32.666Z,0
2017-02-28T04:15:32.287Z,0
2017-02-28T04:16:32.652Z,0
2017-02-28T04:17:32.640Z,0
2017-02-28T04:18:32.629Z,0
2017-02-28T04:19:32.237Z,0
2017-02-28T04:20:32.618Z,0
2017-02-28T04:21:32.613Z,0
2017-02-28T04:22:32.601Z,0
2017-02-28T04:23:32.598Z,0
2017-02-28T04:24:32.594Z,0
2017-02-28T04:25:32.581Z,0
2017-02-28T04:26:32.603Z,0
2017-02-28T04:27:32.588Z,0
2017-02-28T04:28:32.547Z,0
2017-02-28T04:29:32.549Z,0
2017-02-28T04:30:32.540Z,0
2017-02-28T04:31:32.563Z,0
2017-02-28T04:32:32.537Z,0
2017-02-28T04:33:32.511Z,0
2017-02-28T04:34:32.508Z,0
2017-02-28T04:35:32.530Z,0
2017-02-28T04:36:32.491Z,0
2017-02-28T04:37:32.115Z,0
2017-02-28T04:38:32.485Z,0
2017-02-28T04:39:32.462Z,0
2017-02-28T04:40:32.459Z,0
2017-02-28T04:41:32.455Z,0
2017-02-28T04:42:32.458Z,0
2017-02-28T04:43:32.430Z,0
2017-02-28T04:44:32.427Z,0
2017-02-28T04:45:32.446Z,0
2017-02-28T04:46:32.412Z,0
2017-02-28T04:47:32.424Z,0
2017-02-28T04:48:32.430Z,0
2017-02-28T04:49:31.999Z,0
2017-02-28T04:50:32.404Z,0
2017-02-28T04:51:32.377Z,0
2017-02-28T04:52:32.363Z,0
2017-02-28T04:53:32.396Z,0
2017-02-28T04:54:32.346Z,0
2017-02-28T04:55:32.352Z,0
2017-02-28T04:56:32.344Z,0
2017-02-28T04:57:32.330Z,0
2017-02-28T04:58:31.931Z,0
2017-02-28T04:59:31.922Z,0
2017-02-28T05:00:31.963Z,0
2017-02-28T05:01:31.529Z,0
2017-02-28T05:02:32.290Z,0
2017-02-28T05:03:32.283Z,0
2017-02-28T05:04:32.277Z,16
2017-02-28T05:05:32.265Z,32
2017-02-28T05:06:31.867Z,36
2017-02-28T05:07:32.276Z,40
2017-02-28T05:08:32.242Z,40
2017-02-28T05:09:31.843Z,40
2017-02-28T05:10:31.842Z,40
2017-02-28T05:11:31.831Z,40
2017-02-28T05:12:32.211Z,40
2017-02-28T05:13:32.202Z,40
2017-02-28T05:14:32.197Z,40
2017-02-28T05:15:32.195Z,36
2017-02-28T05:16:32.192Z,36
2017-02-28T05:17:32.191Z,36
2017-02-28T05:18:32.168Z,36
2017-02-28T05:19:32.149Z,36
2017-02-28T05:20:32.163Z,36
2017-02-28T05:21:32.139Z,36
2017-02-28T05:22:32.129Z,36
2017-02-28T05:23:32.131Z,0
2017-02-28T05:24:32.116Z,0
2017-02-28T05:25:32.130Z,0
2017-02-28T05:26:32.122Z,0
2017-02-28T05:27:32.095Z,0
2017-02-28T05:28:32.127Z,0
2017-02-28T05:29:32.074Z,0
2017-02-28T05:30:32.089Z,0
2017-02-28T05:31:32.070Z,4
2017-02-28T05:32:32.063Z,4
2017-02-28T05:33:32.050Z,4
2017-02-28T05:34:32.050Z,4
2017-02-28T05:35:31.641Z,4
2017-02-28T05:36:32.028Z,8
2017-02-28T05:37:32.008Z,8
2017-02-28T05:38:32.006Z,8
2017-02-28T05:39:31.627Z,12
2017-02-28T05:40:32.000Z,12
2017-02-28T05:41:31.982Z,12
2017-02-28T05:42:31.586Z,16
2017-02-28T05:43:31.968Z,16
2017-02-28T05:44:31.957Z,24
2017-02-28T05:45:31.950Z,24
2017-02-28T05:46:31.949Z,28
2017-02-28T05:47:31.938Z,32
2017-02-28T05:48:31.926Z,36
2017-02-28T05:49:31.935Z,40
2017-02-28T05:50:31.911Z,44
2017-02-28T05:51:31.527Z,44
2017-02-28T05:52:31.519Z,44
2017-02-28T05:53:31.888Z,52
2017-02-28T05:54:31.914Z,56
2017-02-28T05:55:31.884Z,56
2017-02-28T05:56:31.887Z,56
2017-02-28T05:57:31.897Z,64
2017-02-28T05:58:31.852Z,64
2017-02-28T05:59:31.873Z,72
2017-02-28T06:00:31.831Z,84
2017-02-28T06:01:31.873Z,84
2017-02-28T06:02:31.834Z,96
2017-02-28T06:03:31.810Z,112
2017-02-28T06:04:31.821Z,136
2017-02-28T06:05:31.813Z,148
2017-02-28T06:06:31.788Z,160
2017-02-28T06:07:31.786Z,184
2017-02-28T06:08:31.772Z,220
2017-02-28T06:09:31.771Z,244
2017-02-28T06:10:31.760Z,268
2017-02-28T06:11:31.756Z,292
2017-02-28T06:12:31.743Z,316
2017-02-28T06:13:31.741Z,340
2017-02-28T06:14:31.731Z,360
2017-02-28T06:15:31.718Z,396
2017-02-28T06:16:31.723Z,444
2017-02-28T06:17:31.709Z,504
2017-02-28T06:18:31.713Z,544
2017-02-28T06:19:31.697Z,548
2017-02-28T06:20:31.304Z,516
2017-02-28T06:21:31.299Z,540
2017-02-28T06:22:31.705Z,576
2017-02-28T06:23:31.668Z,596
2017-02-28T06:24:31.649Z,576
2017-02-28T06:25:31.642Z,596
2017-02-28T06:26:31.660Z,588
2017-02-28T06:27:31.636Z,572
2017-02-28T06:28:31.626Z,524
2017-02-28T06:29:31.611Z,504
2017-02-28T06:30:31.626Z,520
2017-02-28T06:31:31.602Z,584
2017-02-28T06:32:31.595Z,708
2017-02-28T06:33:31.610Z,812
2017-02-28T06:34:31.577Z,872
2017-02-28T06:35:31.578Z,804
2017-02-28T06:36:31.557Z,720
2017-02-28T06:37:31.571Z,652
2017-02-28T06:38:31.570Z,628
2017-02-28T06:39:31.561Z,732
2017-02-28T06:40:31.525Z,856
2017-02-28T06:41:31.543Z,936
2017-02-28T06:42:31.512Z,1028
2017-02-28T06:43:31.504Z,1128
2017-02-28T06:44:31.506Z,1096
2017-02-28T06:45:31.500Z,1068
2017-02-28T06:46:31.500Z,1048
2017-02-28T06:47:31.106Z,1040
2017-02-28T06:48:31.467Z,1032
2017-02-28T06:49:31.463Z,1052
2017-02-28T06:50:31.479Z,1084
2017-02-28T06:51:31.054Z,1052
2017-02-28T06:52:31.080Z,988
2017-02-28T06:53:31.446Z,892
2017-02-28T06:54:31.415Z,888
2017-02-28T06:55:30.664Z,956
2017-02-28T06:56:31.037Z,996
2017-02-28T06:57:31.416Z,1116
2017-02-28T06:58:31.394Z,1272
2017-02-28T06:59:31.393Z,1216
2017-02-28T07:00:31.386Z,1176
2017-02-28T07:01:31.373Z,1220
2017-02-28T07:02:31.381Z,1304
2017-02-28T07:03:31.358Z,1408
2017-02-28T07:04:31.352Z,1512
2017-02-28T07:05:31.363Z,1488
2017-02-28T07:06:30.939Z,1392
2017-02-28T07:07:31.346Z,1340
2017-02-28T07:08:31.326Z,1348
2017-02-28T07:09:31.299Z,1396
2017-02-28T07:10:31.297Z,1448
2017-02-28T07:11:31.289Z,1544
2017-02-28T07:12:31.288Z,1644
2017-02-28T07:13:31.288Z,1664
2017-02-28T07:14:31.281Z,1688
2017-02-28T07:15:30.882Z,1744
2017-02-28T07:16:31.248Z,1732
2017-02-28T07:17:31.251Z,1708
2017-02-28T07:18:31.246Z,1708
2017-02-28T07:19:31.223Z,1640
2017-02-28T07:20:31.216Z,1672
2017-02-28T07:21:31.220Z,1744
2017-02-28T07:22:31.199Z,1800
2017-02-28T07:23:31.197Z,1772
2017-02-28T07:24:31.191Z,1780
2017-02-28T07:25:31.200Z,1712
2017-02-28T07:26:30.787Z,1636
2017-02-28T07:27:31.159Z,1636
2017-02-28T07:28:31.158Z,1692
2017-02-28T07:29:31.145Z,1836
2017-02-28T07:30:31.144Z,2028
2017-02-28T07:31:31.137Z,2128
2017-02-28T07:32:31.117Z,2176
2017-02-28T07:33:31.132Z,2248
2017-02-28T07:34:30.729Z,2272
2017-02-28T07:35:31.097Z,2276
2017-02-28T07:36:31.087Z,2324
2017-02-28T07:37:31.338Z,2232
2017-02-28T07:38:31.084Z,2136
2017-02-28T07:39:31.075Z,2108
2017-02-28T07:40:31.063Z,2148
2017-02-28T07:41:31.053Z,2204
2017-02-28T07:42:31.043Z,2324
2017-02-28T07:43:31.032Z,2396
2017-02-28T07:44:30.641Z,2264
2017-02-28T07:45:31.015Z,2104
2017-02-28T07:46:31.012Z,1956
2017-02-28T07:47:31.006Z,1780
2017-02-28T07:48:31.001Z,1688
2017-02-28T07:49:30.990Z,1684
2017-02-28T07:50:30.976Z,1764
2017-02-28T07:51:30.970Z,1868
2017-02-28T07:52:30.987Z,1948
2017-02-28T07:53:30.954Z,2108
2017-02-28T07:54:30.948Z,2344
2017-02-28T07:55:30.947Z,2468
2017-02-28T07:56:30.942Z,2684
2017-02-28T07:57:30.944Z,2672
2017-02-28T07:58:30.911Z,2640
2017-02-28T07:59:30.902Z,2732
2017-02-28T08:00:30.894Z,2828
2017-02-28T08:01:30.502Z,2984
2017-02-28T08:02:30.880Z,3032
2017-02-28T08:03:30.876Z,3072
2017-02-28T08:04:30.885Z,3328
2017-02-28T08:05:30.876Z,3608
2017-02-28T08:06:30.886Z,3720
2017-02-28T08:07:30.887Z,3604
2017-02-28T08:08:30.844Z,3348
2017-02-28T08:09:30.841Z,3340
2017-02-28T08:10:30.438Z,3448
2017-02-28T08:11:30.828Z,3388
2017-02-28T08:12:30.803Z,3352
2017-02-28T08:13:30.426Z,3280
2017-02-28T08:14:30.798Z,3256
2017-02-28T08:15:30.408Z,3400
2017-02-28T08:16:30.773Z,3364
2017-02-28T08:17:30.389Z,3616
2017-02-28T08:18:30.006Z,3932
2017-02-28T08:19:30.743Z,3996
2017-02-28T08:20:30.356Z,3924
2017-02-28T08:21:30.728Z,3808
2017-02-28T08:22:30.335Z,3800
2017-02-28T08:23:30.713Z,3680
2017-02-28T08:24:30.701Z,3900
2017-02-28T08:25:30.699Z,4024
2017-02-28T08:26:30.299Z,4364
2017-02-28T08:27:30.680Z,4472
2017-02-28T08:28:30.676Z,4980
2017-02-28T08:29:30.281Z,5256
2017-02-28T08:30:30.659Z,5352
2017-02-28T08:31:30.260Z,5376
2017-02-28T08:32:30.703Z,6504
2017-02-28T08:33:30.630Z,6872
2017-02-28T08:34:30.650Z,6872
2017-02-28T08:35:30.646Z,6640
2017-02-28T08:36:30.612Z,6504
2017-02-28T08:37:30.222Z,6124
2017-02-28T08:38:30.604Z,5560
2017-02-28T08:39:30.585Z,5140
2017-02-28T08:40:30.590Z,5544
2017-02-28T08:41:30.574Z,6288
2017-02-28T08:42:30.570Z,5944
2017-02-28T08:43:30.558Z,5640
2017-02-28T08:44:30.158Z,4972
2017-02-28T08:45:30.556Z,5712
2017-02-28T08:46:30.537Z,6652
2017-02-28T08:47:30.812Z,7464
2017-02-28T08:48:30.516Z,7708
2017-02-28T08:49:30.136Z,7420
2017-02-28T08:50:30.123Z,7196
2017-02-28T08:51:30.123Z,7492
2017-02-28T08:52:30.492Z,7556
2017-02-28T08:53:30.490Z,7584
2017-02-28T08:54:30.494Z,8068
2017-02-28T08:55:30.481Z,8236
2017-02-28T08:56:30.456Z,8556
2017-02-28T08:57:30.457Z,8832
2017-02-28T08:58:30.065Z,9192
2017-02-28T08:59:30.439Z,9056
2017-02-28T09:00:30.433Z,9876
2017-02-28T09:01:30.433Z,10076
2017-02-28T09:02:30.441Z,10136
2017-02-28T09:03:30.411Z,10096
2017-02-28T09:04:30.414Z,10088
2017-02-28T09:05:30.432Z,10164
2017-02-28T09:06:30.003Z,10336
2017-02-28T09:07:30.381Z,9884
2017-02-28T09:08:30.407Z,10124
2017-02-28T09:09:30.401Z,9916
2017-02-28T09:10:30.363Z,10144
2017-02-28T09:11:29.970Z,10084
2017-02-28T09:12:29.985Z,10300
2017-02-28T09:13:30.349Z,10128
2017-02-28T09:14:30.336Z,9820
2017-02-28T09:15:30.361Z,9416
2017-02-28T09:16:30.329Z,9076
2017-02-28T09:17:30.316Z,8684
2017-02-28T09:18:30.328Z,9128
2017-02-28T09:19:30.331Z,8860
2017-02-28T09:20:30.297Z,8664
2017-02-28T09:21:30.308Z,9296
2017-02-28T09:22:29.896Z,9420
2017-02-28T09:23:30.295Z,9552
2017-02-28T09:24:29.882Z,9968
2017-02-28T09:25:30.311Z,10116
2017-02-28T09:26:29.874Z,10692
2017-02-28T09:27:30.272Z,11088
2017-02-28T09:28:30.243Z,11116
2017-02-28T09:29:30.237Z,11524
2017-02-28T09:30:29.850Z,10844
2017-02-28T09:31:30.222Z,10964
2017-02-28T09:32:30.220Z,10828
2017-02-28T09:33:30.231Z,10952
2017-02-28T09:34:30.227Z,11376
2017-02-28T09:35:30.199Z,11560
2017-02-28T09:36:30.192Z,11804
2017-02-28T09:37:30.200Z,11844
2017-02-28T09:38:30.188Z,11820
2017-02-28T09:39:30.186Z,12048
2017-02-28T09:40:30.185Z,12144
2017-02-28T09:41:30.191Z,11892
2017-02-28T09:42:30.152Z,11852
2017-02-28T09:43:30.146Z,11632
2017-02-28T09:44:30.142Z,11156
2017-02-28T09:45:30.163Z,10936
2017-02-28T09:46:29.749Z,11264
2017-02-28T09:47:30.144Z,11132
2017-02-28T09:48:30.140Z,11292
2017-02-28T09:49:30.111Z,11456
2017-02-28T09:50:30.106Z,11756
2017-02-28T09:51:30.102Z,11972
2017-02-28T09:52:30.111Z,11912
2017-02-28T09:53:30.100Z,12048
2017-02-28T09:54:30.085Z,12140
2017-02-28T09:55:30.083Z,11864
2017-02-28T09:56:29.685Z,11628
2017-02-28T09:57:30.071Z,11500
2017-02-28T09:58:30.069Z,11352
2017-02-28T09:59:30.051Z,11224
2017-02-28T10:00:30.047Z,11076
2017-02-28T10:01:30.046Z,11080
2017-02-28T10:02:29.660Z,11284
2017-02-28T10:03:30.041Z,11484
2017-02-28T10:04:30.027Z,11648
2017-02-28T10:05:30.027Z,11400
2017-02-28T10:06:29.636Z,10748
2017-02-28T10:07:30.038Z,10348
2017-02-28T10:08:30.000Z,10224
2017-02-28T10:09:30.030Z,9972
2017-02-28T10:10:29.223Z,9800
2017-02-28T10:11:29.989Z,10096
2017-02-28T10:12:29.996Z,10324
2017-02-28T10:13:29.978Z,10516
2017-02-28T10:14:29.970Z,10876
2017-02-28T10:15:29.973Z,10772
2017-02-28T10:16:29.984Z,10844
2017-02-28T10:17:29.994Z,10636
2017-02-28T10:18:29.963Z,10876
2017-02-28T10:19:29.548Z,11220
2017-02-28T10:20:29.928Z,11788
2017-02-28T10:21:29.916Z,11840
2017-02-28T10:22:29.926Z,11872
2017-02-28T10:23:29.905Z,11636
2017-02-28T10:24:29.911Z,11808
2017-02-28T10:25:29.515Z,11964
2017-02-28T10:26:29.506Z,11836
2017-02-28T10:27:29.877Z,11720
2017-02-28T10:28:29.876Z,11608
2017-02-28T10:29:29.871Z,11704
2017-02-28T10:30:29.868Z,12004
2017-02-28T10:31:29.856Z,12296
2017-02-28T10:32:29.855Z,12476
2017-02-28T10:33:29.860Z,12240
2017-02-28T10:34:29.837Z,9864
2017-02-28T10:35:29.828Z,10308
2017-02-28T10:36:29.443Z,11452
2017-02-28T10:37:29.828Z,11972
2017-02-28T10:38:29.822Z,12028
2017-02-28T10:39:29.832Z,10084
2017-02-28T10:40:29.434Z,7316
2017-02-28T10:41:29.805Z,6248
2017-02-28T10:42:29.412Z,5580
2017-02-28T10:43:29.807Z,5464
2017-02-28T10:44:29.404Z,6220
2017-02-28T10:45:29.805Z,7520
2017-02-28T10:46:29.794Z,8072
2017-02-28T10:47:29.766Z,6544
2017-02-28T10:48:29.776Z,6592
2017-02-28T10:49:29.757Z,5668
2017-02-28T10:50:29.770Z,7152
2017-02-28T10:51:29.735Z,7368
2017-02-28T10:52:29.733Z,6692
2017-02-28T10:53:29.726Z,4952
2017-02-28T10:54:29.740Z,4956
2017-02-28T10:55:29.357Z,4952
2017-02-28T10:56:29.710Z,4328
2017-02-28T10:57:29.714Z,4020
2017-02-28T10:58:29.696Z,3952
2017-02-28T10:59:29.328Z,4580
2017-02-28T11:00:29.685Z,4176
2017-02-28T11:01:29.317Z,4540
2017-02-28T11:02:29.688Z,4500
2017-02-28T11:03:29.277Z,3788
2017-02-28T11:04:29.655Z,3816
2017-02-28T11:05:29.648Z,3780
2017-02-28T11:06:29.274Z,3720
2017-02-28T11:07:29.654Z,3732
2017-02-28T11:08:29.623Z,3268
2017-02-28T11:09:29.643Z,2912
2017-02-28T11:10:29.632Z,3468
2017-02-28T11:11:29.606Z,3192
2017-02-28T11:12:29.593Z,3608
2017-02-28T11:13:29.588Z,4884
2017-02-28T11:14:29.583Z,7404
2017-02-28T11:15:29.574Z,10104
2017-02-28T11:16:29.569Z,9888
2017-02-28T11:17:29.561Z,11876
2017-02-28T11:18:29.565Z,13544
2017-02-28T11:19:29.169Z,13764
2017-02-28T11:20:29.569Z,12968
2017-02-28T11:21:29.533Z,12552
2017-02-28T11:22:29.540Z,11724
2017-02-28T11:23:29.520Z,12388
2017-02-28T11:24:29.508Z,14144
2017-02-28T11:25:29.540Z,14776
2017-02-28T11:26:29.499Z,15056
2017-02-28T11:27:29.495Z,15028
2017-02-28T11:28:29.503Z,13256
2017-02-28T11:29:29.497Z,12076
2017-02-28T11:30:28.717Z,12700
2017-02-28T11:31:29.467Z,14940
2017-02-28T11:32:29.470Z,12408
2017-02-28T11:33:29.462Z,11012
2017-02-28T11:34:29.457Z,11540
2017-02-28T11:35:29.055Z,9908
2017-02-28T11:36:29.469Z,8136
2017-02-28T11:37:29.431Z,7436
2017-02-28T11:38:28.648Z,8132
2017-02-28T11:39:29.435Z,8064
2017-02-28T11:40:29.409Z,7736
2017-02-28T11:41:29.437Z,9640
2017-02-28T11:42:29.437Z,9644
2017-02-28T11:43:29.395Z,8208
2017-02-28T11:44:29.385Z,10664
2017-02-28T11:45:29.378Z,13136
2017-02-28T11:46:29.375Z,11748
2017-02-28T11:47:29.393Z,10732
2017-02-28T11:48:29.003Z,12760
2017-02-28T11:49:29.355Z,10884
2017-02-28T11:50:29.351Z,11644
2017-02-28T11:51:29.347Z,13364
2017-02-28T11:52:29.350Z,11732
2017-02-28T11:53:29.377Z,10660
2017-02-28T11:54:29.012Z,9100
2017-02-28T11:55:29.363Z,11900
2017-02-28T11:56:29.337Z,11732
2017-02-28T11:57:29.345Z,12400
2017-02-28T11:58:28.939Z,13156
2017-02-28T11:59:29.307Z,10000
2017-02-28T12:00:29.293Z,9588
2017-02-28T12:01:28.924Z,9780
2017-02-28T12:02:29.292Z,10520
2017-02-28T12:03:29.279Z,9500
2017-02-28T12:04:29.277Z,8188
2017-02-28T12:05:29.277Z,8728
2017-02-28T12:06:28.884Z,8748
2017-02-28T12:07:29.265Z,8664
2017-02-28T12:08:28.860Z,9236
2017-02-28T12:09:29.258Z,11636
2017-02-28T12:10:29.240Z,11828
2017-02-28T12:11:29.262Z,10596
2017-02-28T12:12:29.248Z,8772
2017-02-28T12:13:28.839Z,7936
2017-02-28T12:14:28.871Z,9476
2017-02-28T12:15:29.245Z,10836
2017-02-28T12:16:29.220Z,9976
2017-02-28T12:17:29.206Z,9620
2017-02-28T12:18:29.204Z,7400
2017-02-28T12:19:29.193Z,8184
2017-02-28T12:20:29.187Z,9992
2017-02-28T12:21:28.809Z,9396
2017-02-28T12:22:29.178Z,9860
2017-02-28T12:23:28.785Z,8504
2017-02-28T12:24:29.190Z,7280
2017-02-28T12:25:28.780Z,6720
2017-02-28T12:26:29.167Z,8060
2017-02-28T12:27:29.152Z,10524
2017-02-28T12:28:29.141Z,8908
2017-02-28T12:29:29.153Z,8852
2017-02-28T12:30:29.159Z,7868
2017-02-28T12:31:29.131Z,7068
2017-02-28T12:32:29.126Z,7780
2017-02-28T12:33:29.158Z,6096
2017-02-28T12:34:29.125Z,5360
2017-02-28T12:35:29.111Z,4700
2017-02-28T12:36:29.106Z,4676
2017-02-28T12:37:29.098Z,5760
2017-02-28T12:38:29.103Z,5436
2017-02-28T12:39:29.113Z,4220
2017-02-28T12:40:29.112Z,3784
2017-02-28T12:41:29.080Z,3712
2017-02-28T12:42:29.074Z,3728
2017-02-28T12:43:29.317Z,3752
2017-02-28T12:44:29.094Z,3688
2017-02-28T12:45:29.074Z,3656
2017-02-28T12:46:29.078Z,3676
2017-02-28T12:47:28.666Z,3576
2017-02-28T12:48:29.038Z,3644
2017-02-28T12:49:29.061Z,3780
2017-02-28T12:50:29.023Z,4004
2017-02-28T12:51:29.073Z,4112
2017-02-28T12:52:29.028Z,4216
2017-02-28T12:53:29.015Z,4332
2017-02-28T12:54:29.007Z,4444
2017-02-28T12:55:28.999Z,4324
2017-02-28T12:56:28.983Z,4228
2017-02-28T12:57:28.989Z,4460
2017-02-28T12:58:28.980Z,5516
2017-02-28T12:59:28.193Z,7536
2017-02-28T13:00:28.968Z,6700
2017-02-28T13:01:28.959Z,6504
2017-02-28T13:02:28.961Z,6564
2017-02-28T13:03:28.974Z,6936
2017-02-28T13:04:28.955Z,7072
2017-02-28T13:05:28.928Z,6120
2017-02-28T13:06:28.545Z,5332
2017-02-28T13:07:28.914Z,4900
2017-02-28T13:08:28.933Z,5008
2017-02-28T13:09:28.923Z,5040
2017-02-28T13:10:28.899Z,4780
2017-02-28T13:11:28.911Z,4628
2017-02-28T13:12:28.882Z,4364
2017-02-28T13:13:28.877Z,4236
2017-02-28T13:14:28.867Z,4240
2017-02-28T13:15:28.091Z,4208
2017-02-28T13:16:28.467Z,4128
2017-02-28T13:17:28.849Z,4068
2017-02-28T13:18:28.837Z,3908
2017-02-28T13:19:28.447Z,3840
2017-02-28T13:20:28.827Z,3720
2017-02-28T13:21:28.824Z,3616
2017-02-28T13:22:28.810Z,4040
2017-02-28T13:23:28.818Z,4580
2017-02-28T13:24:28.418Z,5696
2017-02-28T13:25:28.810Z,7144
2017-02-28T13:26:28.809Z,6288
2017-02-28T13:27:28.780Z,7480
2017-02-28T13:28:28.776Z,6220
2017-02-28T13:29:28.391Z,5008
2017-02-28T13:30:28.763Z,4656
2017-02-28T13:31:28.781Z,4604
2017-02-28T13:32:28.377Z,4640
2017-02-28T13:33:28.751Z,6444
2017-02-28T13:34:28.738Z,6432
2017-02-28T13:35:28.737Z,5236
2017-02-28T13:36:28.718Z,4916
2017-02-28T13:37:28.713Z,4592
2017-02-28T13:38:28.603Z,4504
2017-02-28T13:39:28.705Z,4820
2017-02-28T13:40:28.715Z,5116
2017-02-28T13:41:28.680Z,4568
2017-02-28T13:42:28.688Z,4812
2017-02-28T13:43:28.677Z,5044
2017-02-28T13:44:28.678Z,5932
2017-02-28T13:45:28.683Z,6872
2017-02-28T13:46:28.279Z,5664
2017-02-28T13:47:28.278Z,4740
2017-02-28T13:48:28.633Z,4688
2017-02-28T13:49:28.625Z,5664
2017-02-28T13:50:28.659Z,6036